Time;durP1;ratioP1;P1;durP2;ratioP2;P2;SDS_P1;SDS_P2;PMS_P1;PMS_P2;Temp;Humidity;BMP_temperature;BMP_pressure;BME280_temperature;BME280_humidity;BME280_pressure;Samples;Min_cycle;Max_cycle;Signal;HPM_P1;HPM_P2
2022/07/19 00:01:13;;;;;;;3.13;2.87;;;20.60;56.50;;;;;;5107397;28;20661;-81
2022/07/19 00:03:40;;;;;;;2.80;2.60;;;20.60;56.00;;;;;;5106867;28;20731;-81
2022/07/19 00:06:07;;;;;;;2.50;2.30;;;20.50;55.90;;;;;;5107261;28;20677;-81
2022/07/19 00:08:33;;;;;;;2.93;2.70;;;20.50;55.70;;;;;;5106569;28;20711;-81
2022/07/19 00:11:02;;;;;;;2.43;2.27;;;20.50;56.80;;;;;;5107286;28;20620;-81
2022/07/19 00:13:29;;;;;;;6.20;2.40;;;20.50;55.90;;;;;;5107028;28;20611;-81
2022/07/19 00:15:56;;;;;;;2.43;2.23;;;20.40;55.10;;;;;;5107341;28;20611;-81
2022/07/19 00:18:23;;;;;;;3.00;2.53;;;20.50;55.30;;;;;;5107585;28;20600;-81
2022/07/19 00:20:50;;;;;;;6.83;3.37;;;20.50;56.10;;;;;;5106665;28;20616;-81
2022/07/19 00:23:18;;;;;;;3.40;3.10;;;20.50;55.70;;;;;;5106350;28;20707;-81
2022/07/19 00:25:45;;;;;;;5.50;5.10;;;20.50;55.70;;;;;;5107012;28;20596;-81
2022/07/19 00:28:13;;;;;;;5.77;2.67;;;20.40;55.80;;;;;;5106997;28;20732;-81
2022/07/19 00:30:40;;;;;;;4.53;2.80;;;20.50;56.60;;;;;;5107084;28;20947;-81
2022/07/19 00:33:08;;;;;;;2.43;2.23;;;20.40;57.70;;;;;;5100823;28;20618;-81
2022/07/19 00:35:35;;;;;;;2.40;2.30;;;20.30;58.20;;;;;;5088025;28;20616;-81
2022/07/19 00:38:05;;;;;;;3.10;2.40;;;20.30;57.00;;;;;;5090892;28;20620;-81
2022/07/19 00:40:32;;;;;;;4.07;3.10;;;20.40;56.60;;;;;;5093541;28;20619;-81
2022/07/19 00:42:59;;;;;;;2.87;2.60;;;20.40;56.00;;;;;;5110611;28;20687;-81
2022/07/19 00:45:28;;;;;;;2.53;2.13;;;20.40;55.80;;;;;;5110833;28;21200;-81
2022/07/19 00:47:55;;;;;;;2.67;2.47;;;20.40;56.10;;;;;;5110701;28;20600;-83
2022/07/19 00:50:23;;;;;;;2.30;2.20;;;20.40;56.00;;;;;;5110633;28;21237;-81
2022/07/19 00:52:54;;;;;;;2.73;2.20;;;20.30;57.00;;;;;;5110383;28;20606;-81
2022/07/19 00:55:22;;;;;;;3.03;2.73;;;20.20;56.90;;;;;;5104856;28;20663;-81
2022/07/19 00:57:50;;;;;;;2.40;2.20;;;20.10;58.20;;;;;;5111026;28;21590;-81
2022/07/19 01:00:18;;;;;;;2.37;1.97;;;19.90;58.50;;;;;;5110492;28;20714;-81
2022/07/19 01:02:48;;;;;;;2.80;2.60;;;19.90;58.80;;;;;;5109416;28;21096;-81
2022/07/19 01:05:14;;;;;;;2.50;2.30;;;19.90;57.00;;;;;;5109522;28;20704;-81
2022/07/19 01:07:42;;;;;;;2.30;2.17;;;20.00;56.70;;;;;;5110618;28;20655;-81
2022/07/19 01:10:11;;;;;;;2.90;2.70;;;20.00;56.70;;;;;;5110885;27;20614;-81
2022/07/19 01:12:39;;;;;;;2.40;2.20;;;20.10;56.80;;;;;;5110128;28;20979;-81
2022/07/19 01:15:14;;;;;;;3.03;2.50;;;20.10;57.10;;;;;;5110101;28;20946;-81
2022/07/19 01:17:41;;;;;;;3.03;2.73;;;19.90;58.90;;;;;;5110456;28;21474;-81
2022/07/19 01:20:10;;;;;;;3.03;2.83;;;19.90;59.30;;;;;;5110473;28;20604;-81
2022/07/19 01:22:39;;;;;;;3.23;2.63;;;19.60;58.90;;;;;;5109390;28;20655;-81
2022/07/19 01:25:07;;;;;;;2.40;2.20;;;19.70;59.00;;;;;;5110162;28;20607;-82
2022/07/19 01:27:39;;;;;;;3.00;2.60;;;19.70;59.20;;;;;;5109884;28;20619;-81
2022/07/19 01:30:12;;;;;;;2.23;2.03;;;19.70;59.30;;;;;;5110628;28;20635;-81
2022/07/19 01:32:39;;;;;;;3.03;2.60;;;19.60;59.90;;;;;;5109500;28;20617;-81
2022/07/19 01:35:08;;;;;;;2.77;2.57;;;19.50;59.70;;;;;;5110566;28;20602;-81
2022/07/19 01:37:38;;;;;;;3.90;3.57;;;19.40;61.00;;;;;;5110455;28;20618;-81
2022/07/19 01:40:08;;;;;;;2.40;2.30;;;19.20;59.50;;;;;;5109476;28;20614;-81
2022/07/19 01:42:36;;;;;;;3.30;3.00;;;19.30;59.20;;;;;;5089173;28;20655;-81
2022/07/19 01:45:04;;;;;;;2.23;2.07;;;19.30;60.00;;;;;;5089802;28;20628;-81
2022/07/19 01:47:32;;;;;;;2.90;2.60;;;19.20;59.90;;;;;;5088479;28;20623;-81
2022/07/19 01:49:59;;;;;;;3.10;2.90;;;19.30;59.60;;;;;;5089376;28;20624;-81
2022/07/19 01:52:26;;;;;;;2.70;2.47;;;19.30;60.30;;;;;;5088444;28;20611;-81
2022/07/19 01:54:54;;;;;;;2.20;2.00;;;19.30;60.70;;;;;;5087775;28;20631;-81
2022/07/19 01:57:21;;;;;;;2.90;2.60;;;19.20;59.60;;;;;;5089885;28;21218;-81
2022/07/19 01:59:48;;;;;;;3.43;2.90;;;19.10;59.90;;;;;;5089017;28;20601;-81
2022/07/19 02:02:15;;;;;;;3.43;3.13;;;19.10;60.70;;;;;;5106717;28;20655;-81
2022/07/19 02:04:42;;;;;;;3.73;2.23;;;19.00;59.70;;;;;;5109197;28;20707;-81
2022/07/19 02:07:09;;;;;;;3.53;3.23;;;19.00;59.90;;;;;;5109004;28;20608;-81
2022/07/19 02:09:36;;;;;;;2.50;2.30;;;19.00;60.30;;;;;;5109448;28;20622;-81
2022/07/19 02:12:04;;;;;;;3.20;2.87;;;18.90;60.50;;;;;;5109858;28;20621;-81
2022/07/19 02:14:31;;;;;;;2.43;2.20;;;18.90;61.10;;;;;;5109143;28;20715;-81
2022/07/19 02:16:58;;;;;;;3.07;2.60;;;18.90;62.40;;;;;;5109522;28;21185;-81
2022/07/19 02:19:25;;;;;;;2.10;2.00;;;18.80;60.60;;;;;;5108921;28;20677;-81
2022/07/19 02:21:52;;;;;;;2.70;2.50;;;18.80;62.30;;;;;;5108726;28;20746;-81
2022/07/19 02:24:19;;;;;;;3.40;2.90;;;18.70;63.30;;;;;;5108758;28;20624;-81
2022/07/19 02:26:47;;;;;;;7.43;3.03;;;18.60;63.40;;;;;;5109355;28;21206;-81
2022/07/19 02:29:15;;;;;;;2.60;2.40;;;18.60;62.30;;;;;;5109263;28;20712;-81
2022/07/19 02:31:42;;;;;;;3.03;2.80;;;18.50;64.30;;;;;;5109209;28;20707;-81
2022/07/19 02:34:08;;;;;;;2.60;2.40;;;18.40;64.80;;;;;;5094268;28;20674;-81
2022/07/19 02:36:35;;;;;;;3.20;2.00;;;18.40;65.60;;;;;;5088467;28;20656;-81
2022/07/19 02:39:02;;;;;;;3.57;3.27;;;18.40;65.50;;;;;;5088710;28;20615;-81
2022/07/19 02:41:31;;;;;;;2.43;2.33;;;18.50;64.30;;;;;;5099019;28;21201;-81
2022/07/19 02:43:58;;;;;;;2.53;2.33;;;18.50;62.90;;;;;;5107749;28;20677;-81
2022/07/19 02:46:26;;;;;;;2.73;2.53;;;18.60;62.60;;;;;;5108456;28;20738;-81
2022/07/19 02:48:53;;;;;;;3.00;2.40;;;18.60;64.20;;;;;;5108086;28;20667;-81
2022/07/19 02:51:20;;;;;;;2.70;2.47;;;18.50;64.90;;;;;;5108873;28;20616;-81
2022/07/19 02:53:47;;;;;;;2.90;2.70;;;18.50;64.80;;;;;;5106940;28;20627;-81
2022/07/19 02:56:14;;;;;;;2.57;1.97;;;18.40;65.30;;;;;;5088442;28;20725;-81
2022/07/19 02:58:41;;;;;;;2.90;2.70;;;18.40;65.30;;;;;;5088477;28;21242;-81
2022/07/19 03:01:08;;;;;;;3.00;2.33;;;18.40;64.90;;;;;;5096525;28;20611;-81
2022/07/19 03:03:47;;;;;;;2.70;2.50;;;18.40;63.40;;;;;;5107626;28;20754;-81
2022/07/19 03:06:15;;;;;;;2.37;2.17;;;18.30;63.70;;;;;;5108500;28;20631;-81
2022/07/19 03:08:42;;;;;;;2.60;2.40;;;18.30;63.50;;;;;;5088510;28;20956;-81
2022/07/19 03:11:09;;;;;;;3.30;3.00;;;18.30;65.50;;;;;;5088461;28;20686;-81
2022/07/19 03:13:36;;;;;;;2.57;2.47;;;18.40;64.20;;;;;;5087902;28;20735;-81
2022/07/19 03:16:03;;;;;;;3.07;2.77;;;18.40;64.60;;;;;;5087678;28;20604;-81
2022/07/19 03:18:30;;;;;;;2.90;2.70;;;18.40;64.60;;;;;;5088149;28;20660;-81
2022/07/19 03:20:58;;;;;;;1.90;1.80;;;18.20;63.70;;;;;;5087754;28;20683;-81
2022/07/19 03:23:26;;;;;;;2.60;2.40;;;18.20;61.70;;;;;;5097533;28;20666;-81
2022/07/19 03:25:53;;;;;;;3.00;2.80;;;18.30;61.40;;;;;;5108085;28;20665;-81
2022/07/19 03:28:20;;;;;;;2.70;2.50;;;18.30;61.50;;;;;;5107679;28;20616;-81
2022/07/19 03:30:47;;;;;;;2.60;2.40;;;18.30;61.10;;;;;;5108183;28;20714;-81
2022/07/19 03:33:15;;;;;;;2.10;2.00;;;18.30;61.10;;;;;;5101133;28;20667;-81
2022/07/19 03:35:43;;;;;;;2.57;2.37;;;18.30;61.50;;;;;;5087379;28;20625;-82
2022/07/19 03:38:13;;;;;;;2.60;2.40;;;18.40;61.90;;;;;;5087977;28;20636;-82
2022/07/19 03:40:50;;;;;;;2.90;2.60;;;18.50;61.90;;;;;;5092650;28;21288;-82
2022/07/19 03:43:17;;;;;;;2.53;2.33;;;18.40;62.00;;;;;;5107613;28;20720;-81
2022/07/19 03:45:45;;;;;;;2.63;2.43;;;18.40;62.50;;;;;;5108076;28;20673;-81
2022/07/19 03:48:13;;;;;;;2.70;2.50;;;18.50;61.50;;;;;;5108292;28;20659;-81
2022/07/19 03:50:40;;;;;;;2.10;1.90;;;18.50;61.60;;;;;;5108046;28;20643;-81
2022/07/19 03:53:07;;;;;;;2.73;2.53;;;18.50;61.10;;;;;;5107610;28;21312;-81
2022/07/19 03:55:36;;;;;;;2.53;2.27;;;18.50;62.00;;;;;;5106067;28;20727;-81
2022/07/19 03:58:02;;;;;;;3.00;2.40;;;18.50;62.70;;;;;;5091180;28;20632;-80
2022/07/19 04:00:29;;;;;;;3.73;2.40;;;18.50;61.40;;;;;;5090404;28;20676;-81
2022/07/19 04:02:56;;;;;;;2.27;2.07;;;18.40;63.00;;;;;;5107659;28;20636;-81
2022/07/19 04:05:23;;;;;;;2.83;2.53;;;18.30;63.90;;;;;;5107133;28;21166;-81
2022/07/19 04:07:50;;;;;;;2.30;2.10;;;18.30;64.90;;;;;;5107884;28;20616;-81
2022/07/19 04:10:17;;;;;;;2.80;2.27;;;18.20;65.70;;;;;;5107319;28;20672;-81
2022/07/19 04:12:45;;;;;;;2.27;2.07;;;18.20;65.90;;;;;;5107226;28;21508;-81
2022/07/19 04:15:12;;;;;;;2.53;2.33;;;18.00;66.30;;;;;;5107945;28;20615;-81
2022/07/19 04:17:39;;;;;;;2.00;1.90;;;17.90;66.40;;;;;;5107923;28;20615;-81
2022/07/19 04:20:07;;;;;;;3.07;2.43;;;17.90;66.40;;;;;;5107875;28;20655;-81
2022/07/19 04:22:34;;;;;;;2.27;2.17;;;18.00;67.90;;;;;;5106627;28;20702;-81
2022/07/19 04:25:02;;;;;;;2.73;2.57;;;18.00;69.00;;;;;;5108133;28;20743;-81
2022/07/19 04:27:29;;;;;;;3.10;2.00;;;18.10;68.20;;;;;;5108262;28;20718;-80
2022/07/19 04:29:57;;;;;;;2.40;2.17;;;18.20;68.00;;;;;;5108054;28;20634;-81
2022/07/19 04:32:24;;;;;;;2.60;1.93;;;18.20;66.40;;;;;;5107110;28;20742;-81
2022/07/19 04:34:51;;;;;;;3.00;2.70;;;18.20;66.30;;;;;;5108022;28;20975;-81
2022/07/19 04:37:18;;;;;;;2.20;1.93;;;18.20;67.10;;;;;;5107084;28;20684;-81
2022/07/19 04:39:45;;;;;;;2.50;2.30;;;18.30;67.10;;;;;;5107881;28;20667;-81
2022/07/19 04:42:12;;;;;;;2.27;2.07;;;18.30;66.90;;;;;;5107607;28;20623;-81
2022/07/19 04:44:39;;;;;;;2.20;2.00;;;18.30;66.70;;;;;;5107691;28;20711;-81
2022/07/19 04:47:07;;;;;;;3.50;2.20;;;18.30;68.10;;;;;;5107947;28;20670;-81
2022/07/19 04:49:54;;;;;;;2.23;2.03;;;18.30;67.10;;;;;;5106830;28;20742;-83
2022/07/19 04:52:21;;;;;;;1.93;1.83;;;18.50;68.90;;;;;;5105525;28;20756;-82
2022/07/19 04:54:48;;;;;;;2.20;2.00;;;18.60;68.40;;;;;;5104709;28;21006;-82
2022/07/19 04:57:15;;;;;;;2.70;2.43;;;18.60;68.30;;;;;;5106191;28;20651;-81
2022/07/19 05:00:26;;;;;;;2.90;2.57;;;18.50;68.50;;;;;;5106091;28;20620;-83
2022/07/19 05:02:56;;;;;;;4.00;2.53;;;18.60;69.60;;;;;;5101942;28;20643;-81
2022/07/19 05:05:23;;;;;;;3.10;2.77;;;18.60;68.60;;;;;;5105143;28;20659;-82
2022/07/19 05:07:50;;;;;;;2.70;1.70;;;18.60;68.30;;;;;;5105300;28;20622;-81
2022/07/19 05:10:17;;;;;;;3.70;3.00;;;18.70;69.00;;;;;;5106072;28;20656;-81
2022/07/19 05:12:44;;;;;;;2.53;2.33;;;18.80;69.10;;;;;;5105015;28;20774;-81
2022/07/19 05:15:11;;;;;;;3.67;2.37;;;18.90;68.40;;;;;;5106668;28;20608;-82
2022/07/19 05:18:01;;;;;;;2.60;2.40;;;19.10;68.30;;;;;;5106031;28;21190;-84
2022/07/19 05:20:28;;;;;;;3.80;3.50;;;19.30;68.30;;;;;;5104155;28;20743;-81
2022/07/19 05:22:55;;;;;;;4.63;3.90;;;19.30;68.00;;;;;;5107780;28;20741;-81
2022/07/19 05:25:22;;;;;;;4.63;4.17;;;19.40;68.20;;;;;;5110963;28;20627;-81
2022/07/19 05:27:49;;;;;;;3.43;3.13;;;19.50;68.20;;;;;;5111342;28;20677;-82
2022/07/19 05:30:16;;;;;;;2.67;2.43;;;19.70;64.00;;;;;;5111072;28;20626;-79
2022/07/19 05:32:43;;;;;;;3.70;2.30;;;19.90;62.50;;;;;;5110254;28;20710;-79
2022/07/19 05:35:11;;;;;;;2.97;2.77;;;20.10;61.10;;;;;;5110886;28;20631;-80
2022/07/19 05:37:38;;;;;;;2.10;2.00;;;20.20;61.10;;;;;;5108841;28;20706;-79
2022/07/19 05:40:06;;;;;;;2.87;2.57;;;20.30;60.50;;;;;;5110409;28;20647;-79
2022/07/19 05:42:33;;;;;;;2.77;2.53;;;20.40;60.10;;;;;;5109034;28;20611;-78
2022/07/19 05:45:00;;;;;;;4.90;2.20;;;20.50;59.70;;;;;;5103303;28;20648;-81
2022/07/19 05:47:27;;;;;;;2.23;2.10;;;20.70;60.40;;;;;;5109343;28;20683;-81
2022/07/19 05:49:54;;;;;;;3.57;2.67;;;20.80;59.40;;;;;;5108934;28;20666;-80
2022/07/19 05:52:22;;;;;;;2.83;2.50;;;20.90;59.30;;;;;;5100973;28;20627;-80
2022/07/19 05:54:49;;;;;;;2.53;2.33;;;20.90;59.10;;;;;;5108995;28;20616;-80
2022/07/19 05:57:16;;;;;;;2.47;2.27;;;21.00;59.00;;;;;;5109576;28;20676;-78
2022/07/19 05:59:43;;;;;;;3.03;2.47;;;21.10;58.60;;;;;;5109814;28;20651;-81
2022/07/19 06:02:10;;;;;;;2.57;2.37;;;21.10;58.10;;;;;;5108739;28;20731;-81
2022/07/19 06:04:37;;;;;;;2.40;2.20;;;21.30;56.80;;;;;;5109352;28;20630;-81
2022/07/19 06:07:03;;;;;;;2.67;2.47;;;21.30;56.40;;;;;;5109875;28;20734;-81
2022/07/19 06:09:32;;;;;;;3.80;3.10;;;21.50;56.90;;;;;;5110143;28;20635;-81
2022/07/19 06:11:58;;;;;;;1.60;1.50;;;21.60;57.30;;;;;;5110245;28;20616;-81
2022/07/19 06:14:25;;;;;;;2.57;2.37;;;21.70;57.30;;;;;;5109263;28;20779;-81
2022/07/19 06:16:53;;;;;;;1.90;1.80;;;21.80;56.30;;;;;;5110096;28;20710;-81
2022/07/19 06:19:21;;;;;;;2.00;1.90;;;21.90;55.60;;;;;;5109910;28;21195;-80
2022/07/19 06:21:47;;;;;;;2.10;1.90;;;22.00;55.70;;;;;;5110330;28;20611;-81
2022/07/19 06:24:14;;;;;;;2.20;2.00;;;22.10;55.00;;;;;;5109438;28;20654;-81
2022/07/19 06:26:42;;;;;;;5.33;2.00;;;22.30;54.60;;;;;;5110198;28;20707;-81
2022/07/19 06:29:09;;;;;;;2.27;1.80;;;22.40;54.20;;;;;;5110091;28;20722;-81
2022/07/19 06:31:36;;;;;;;2.50;2.30;;;22.50;53.50;;;;;;5109932;28;20651;-82
2022/07/19 06:34:03;;;;;;;3.27;1.87;;;22.60;53.20;;;;;;5095256;28;20789;-81
2022/07/19 06:36:30;;;;;;;3.17;2.40;;;22.70;52.90;;;;;;5089790;28;20697;-81
2022/07/19 06:38:57;;;;;;;3.27;2.50;;;22.80;52.80;;;;;;5089507;28;20636;-82
2022/07/19 06:41:24;;;;;;;1.90;1.80;;;22.90;52.40;;;;;;5100325;28;20631;-81
2022/07/19 06:43:52;;;;;;;2.00;1.90;;;23.00;53.30;;;;;;5109368;28;20651;-81
2022/07/19 06:46:19;;;;;;;1.60;1.50;;;23.10;52.70;;;;;;5109326;28;20616;-81
2022/07/19 06:48:46;;;;;;;2.43;2.23;;;23.10;51.70;;;;;;5109657;28;20666;-81
2022/07/19 06:51:12;;;;;;;1.57;1.47;;;23.20;52.10;;;;;;5110163;28;20615;-81
2022/07/19 06:53:39;;;;;;;2.67;2.03;;;23.30;51.50;;;;;;5108826;28;20787;-82
2022/07/19 06:56:07;;;;;;;1.60;1.50;;;23.40;51.60;;;;;;5089098;28;21073;-81
2022/07/19 06:58:34;;;;;;;2.23;1.90;;;23.60;51.10;;;;;;5087804;28;20659;-81
2022/07/19 07:01:03;;;;;;;2.03;1.80;;;23.70;50.90;;;;;;5095833;28;21172;-81
2022/07/19 07:03:30;;;;;;;1.87;1.77;;;23.70;50.90;;;;;;5108912;28;20699;-81
2022/07/19 07:05:57;;;;;;;1.73;1.63;;;23.80;51.00;;;;;;5109565;28;20615;-81
2022/07/19 07:08:23;;;;;;;1.93;1.67;;;24.00;51.30;;;;;;5109263;28;20624;-82
2022/07/19 07:10:50;;;;;;;1.80;1.70;;;24.10;51.80;;;;;;5109416;28;20638;-81
2022/07/19 07:13:17;;;;;;;1.83;1.73;;;24.20;50.70;;;;;;5108478;28;20659;-81
2022/07/19 07:15:45;;;;;;;1.70;1.60;;;24.40;50.60;;;;;;5109301;28;20639;-82
2022/07/19 07:18:13;;;;;;;2.23;2.03;;;24.50;50.60;;;;;;5109482;28;21018;-81
2022/07/19 07:20:40;;;;;;;2.40;2.20;;;24.60;50.60;;;;;;5109131;28;20636;-82
2022/07/19 07:23:07;;;;;;;2.13;1.93;;;24.70;49.10;;;;;;5108552;28;20650;-81
2022/07/19 07:25:34;;;;;;;2.03;1.73;;;24.80;49.10;;;;;;5108787;28;20635;-82
2022/07/19 07:28:01;;;;;;;1.93;1.83;;;24.90;48.80;;;;;;5108575;28;20619;-82
2022/07/19 07:30:28;;;;;;;2.00;1.60;;;25.00;49.60;;;;;;5109137;28;20723;-81
2022/07/19 07:32:55;;;;;;;1.90;1.80;;;25.20;49.10;;;;;;5105069;28;20655;-81
2022/07/19 07:35:23;;;;;;;2.00;1.90;;;25.30;48.90;;;;;;5088561;28;20701;-81
2022/07/19 07:37:50;;;;;;;1.90;1.80;;;25.40;48.80;;;;;;5088570;28;20628;-81
2022/07/19 07:40:17;;;;;;;2.17;2.07;;;25.50;48.20;;;;;;5089573;28;20863;-82
2022/07/19 07:42:44;;;;;;;1.80;1.70;;;25.60;47.80;;;;;;5107601;28;20619;-82
2022/07/19 07:45:11;;;;;;;2.17;1.87;;;25.70;48.00;;;;;;5107865;28;20662;-82
2022/07/19 07:47:38;;;;;;;1.70;1.60;;;25.80;47.80;;;;;;5109234;28;20681;-81
2022/07/19 07:50:07;;;;;;;4.80;3.50;;;26.00;47.70;;;;;;5108925;28;20627;-82
2022/07/19 07:52:35;;;;;;;1.97;1.87;;;26.10;47.30;;;;;;5107431;28;20626;-82
2022/07/19 07:55:03;;;;;;;1.33;1.20;;;26.20;47.20;;;;;;5096761;28;20781;-82
2022/07/19 07:57:30;;;;;;;1.97;1.70;;;26.30;46.40;;;;;;5086939;28;20724;-82
2022/07/19 07:59:57;;;;;;;1.57;1.47;;;26.50;46.20;;;;;;5088122;28;20712;-81
2022/07/19 08:02:33;;;;;;;1.60;1.50;;;26.60;46.30;;;;;;5106074;28;20664;-83
2022/07/19 08:05:02;;;;;;;1.70;1.60;;;26.60;44.90;;;;;;5108676;28;20691;-82
2022/07/19 08:07:30;;;;;;;1.53;1.43;;;26.80;44.90;;;;;;5107867;28;20615;-81
2022/07/19 08:09:59;;;;;;;2.00;1.90;;;26.90;44.40;;;;;;5108121;28;20706;-82
2022/07/19 08:12:26;;;;;;;1.37;1.27;;;27.00;44.50;;;;;;5107670;28;20615;-82
2022/07/19 08:15:03;;;;;;;1.60;1.50;;;27.20;44.60;;;;;;5108086;28;20694;-82
2022/07/19 08:17:31;;;;;;;1.87;1.77;;;27.30;45.00;;;;;;5108070;28;21045;-82
2022/07/19 08:20:01;;;;;;;1.67;1.57;;;27.40;44.60;;;;;;5108335;28;20639;-82
2022/07/19 08:22:34;;;;;;;1.10;1.10;;;27.60;44.10;;;;;;5107975;28;20626;-82
2022/07/19 08:25:08;;;;;;;1.70;1.60;;;27.60;43.30;;;;;;5108312;28;20631;-82
2022/07/19 08:27:35;;;;;;;1.57;1.47;;;27.70;43.10;;;;;;5108208;28;20625;-82
2022/07/19 08:30:04;;;;;;;1.10;1.10;;;27.90;43.60;;;;;;5108121;28;20619;-82
2022/07/19 08:32:31;;;;;;;2.10;2.00;;;27.90;42.70;;;;;;5106794;28;20620;-83
2022/07/19 08:35:04;;;;;;;1.60;1.50;;;28.00;42.20;;;;;;5087837;28;20771;-82
2022/07/19 08:37:31;;;;;;;1.83;1.73;;;28.10;42.80;;;;;;5087920;28;20624;-82
2022/07/19 08:40:00;;;;;;;1.70;1.50;;;28.30;42.90;;;;;;5087603;28;20716;-82
2022/07/19 08:42:30;;;;;;;1.73;1.60;;;28.40;42.30;;;;;;5106237;28;20648;-81
2022/07/19 08:45:05;;;;;;;1.87;1.77;;;28.50;42.20;;;;;;5107782;28;21217;-81
2022/07/19 08:47:32;;;;;;;1.50;1.40;;;28.60;41.80;;;;;;5107911;28;21106;-83
2022/07/19 08:50:07;;;;;;;1.77;1.67;;;28.60;41.50;;;;;;5107864;28;20635;-82
2022/07/19 08:52:51;;;;;;;2.30;2.10;;;28.70;41.80;;;;;;5107565;28;20645;-82
2022/07/19 08:55:22;;;;;;;2.07;1.87;;;28.80;42.60;;;;;;5094306;28;20672;-83
2022/07/19 08:57:57;;;;;;;1.67;1.57;;;29.00;41.50;;;;;;5090629;28;21154;-82
2022/07/19 09:00:30;;;;;;;1.93;1.77;;;29.00;40.90;;;;;;5093590;28;21053;-82
2022/07/19 09:03:01;;;;;;;1.80;1.70;;;29.20;41.60;;;;;;5111590;28;21172;-82
2022/07/19 09:05:29;;;;;;;2.23;2.03;;;29.20;40.40;;;;;;5111221;28;20987;-82
2022/07/19 09:08:12;;;;;;;2.10;2.00;;;29.30;41.40;;;;;;5111308;28;21089;-82
2022/07/19 09:11:14;;;;;;;1.17;1.10;;;29.40;40.80;;;;;;5111684;28;21201;-82
2022/07/19 09:13:38;;;;;;;1.87;1.77;;;29.50;41.80;;;;;;5110467;28;20677;-84
2022/07/19 09:16:08;;;;;;;1.93;1.60;;;29.60;40.60;;;;;;5111792;28;20608;-84
2022/07/19 09:18:36;;;;;;;1.63;1.53;;;29.80;40.80;;;;;;5111295;28;20607;-83
2022/07/19 09:21:05;;;;;;;2.10;2.00;;;29.90;40.50;;;;;;5111552;28;20699;-82
2022/07/19 09:23:33;;;;;;;2.30;2.10;;;30.00;40.70;;;;;;5110947;28;21513;-82
2022/07/19 09:26:05;;;;;;;1.73;1.63;;;30.10;40.10;;;;;;5111449;28;20680;-83
2022/07/19 09:28:34;;;;;;;2.33;2.13;;;30.10;40.20;;;;;;5110943;28;21270;-83
2022/07/19 09:31:04;;;;;;;2.20;1.57;;;30.10;41.30;;;;;;5110738;28;21261;-83
2022/07/19 09:33:33;;;;;;;1.70;1.60;;;30.20;39.90;;;;;;5102055;28;21012;-82
2022/07/19 09:36:01;;;;;;;1.60;1.50;;;30.40;39.80;;;;;;5090971;28;20644;-83
2022/07/19 09:38:30;;;;;;;1.80;1.70;;;30.40;39.20;;;;;;5090637;28;20635;-82
2022/07/19 09:41:10;;;;;;;2.03;1.93;;;30.40;39.50;;;;;;5097560;28;20664;-83
2022/07/19 09:43:51;;;;;;;3.10;2.00;;;30.50;39.50;;;;;;5109743;28;20615;-82
2022/07/19 09:46:34;;;;;;;2.10;1.90;;;30.60;39.60;;;;;;5111110;28;21175;-82
2022/07/19 09:49:06;;;;;;;2.00;1.90;;;30.70;39.20;;;;;;5110922;28;20719;-83
2022/07/19 09:51:34;;;;;;;1.63;1.53;;;30.70;39.10;;;;;;5110754;28;20650;-82
2022/07/19 09:54:04;;;;;;;1.20;1.10;;;30.80;38.60;;;;;;5109355;28;20647;-82
2022/07/19 09:56:31;;;;;;;1.87;1.73;;;31.00;38.30;;;;;;5109339;28;20700;-82
2022/07/19 09:58:59;;;;;;;2.00;1.77;;;31.20;37.40;;;;;;5110376;28;20615;-82
2022/07/19 10:01:28;;;;;;;3.30;2.00;;;31.20;37.50;;;;;;5110479;28;21132;-82
2022/07/19 10:03:59;;;;;;;1.70;1.60;;;31.50;37.40;;;;;;5109843;28;20627;-83
2022/07/19 10:06:26;;;;;;;1.70;1.60;;;31.40;35.90;;;;;;5110313;28;20619;-83
2022/07/19 10:08:54;;;;;;;1.37;1.27;;;31.50;35.70;;;;;;5109402;28;20727;-82
2022/07/19 10:11:21;;;;;;;1.80;1.70;;;31.60;35.40;;;;;;5111002;28;20623;-83
2022/07/19 10:13:50;;;;;;;2.37;1.90;;;31.80;35.90;;;;;;5109604;28;21061;-82
2022/07/19 10:16:23;;;;;;;1.80;1.60;;;31.80;35.20;;;;;;5110489;28;20645;-82
2022/07/19 10:19:03;;;;;;;2.07;1.93;;;31.80;36.30;;;;;;5110405;28;20614;-82
2022/07/19 10:21:32;;;;;;;2.13;1.70;;;31.90;36.10;;;;;;5110754;28;20746;-83
2022/07/19 10:24:00;;;;;;;2.23;2.07;;;31.90;35.50;;;;;;5109516;28;20642;-82
2022/07/19 10:26:37;;;;;;;2.07;1.90;;;32.00;35.40;;;;;;5110251;28;20615;-83
2022/07/19 10:29:08;;;;;;;5.80;2.30;;;32.10;35.70;;;;;;5109875;28;20650;-83
2022/07/19 10:31:36;;;;;;;2.10;1.90;;;32.20;36.60;;;;;;5110269;28;20616;-82
2022/07/19 10:34:06;;;;;;;1.93;1.83;;;32.20;35.60;;;;;;5096167;28;20667;-82
2022/07/19 10:36:38;;;;;;;2.30;2.10;;;32.40;34.30;;;;;;5089398;28;20616;-84
2022/07/19 10:39:24;;;;;;;1.40;1.30;;;32.30;34.70;;;;;;5089148;28;20630;-81
2022/07/19 10:42:18;;;;;;;2.20;1.50;;;32.50;34.80;;;;;;5102910;28;20688;-82
2022/07/19 10:45:16;;;;;;;1.90;1.77;;;32.60;34.60;;;;;;5106602;28;20719;-83
2022/07/19 10:48:06;;;;;;;1.90;1.73;;;32.70;34.40;;;;;;5110012;28;20651;-82
2022/07/19 10:50:49;;;;;;;1.53;1.43;;;32.90;34.90;;;;;;5109324;28;20738;-83
2022/07/19 10:53:55;;;;;;;1.77;1.67;;;32.90;34.50;;;;;;5109219;28;20738;-84
2022/07/19 10:56:28;;;;;;;1.73;1.63;;;33.00;34.20;;;;;;5080185;28;20635;-83
2022/07/19 10:58:57;;;;;;;1.60;1.50;;;33.30;34.60;;;;;;5109446;28;20627;-84
2022/07/19 11:01:25;;;;;;;2.23;2.03;;;33.40;34.10;;;;;;5109222;28;20612;-83
2022/07/19 11:03:54;;;;;;;1.80;1.70;;;33.50;34.20;;;;;;5109020;28;20645;-83
2022/07/19 11:06:24;;;;;;;2.00;1.70;;;33.60;33.50;;;;;;5109031;27;20949;-83
2022/07/19 11:08:55;;;;;;;1.93;1.70;;;33.80;34.60;;;;;;5108718;28;20616;-84
2022/07/19 11:11:22;;;;;;;1.80;1.70;;;34.10;33.50;;;;;;5109505;28;21021;-84
2022/07/19 11:13:51;;;;;;;2.00;1.80;;;34.00;33.40;;;;;;5108694;28;20992;-83
2022/07/19 11:16:18;;;;;;;2.30;1.53;;;34.00;33.40;;;;;;5109273;28;20755;-82
2022/07/19 11:18:45;;;;;;;1.67;1.57;;;34.30;34.00;;;;;;5109059;28;20624;-82
2022/07/19 11:21:14;;;;;;;2.40;2.20;;;34.30;33.40;;;;;;5109094;28;20620;-83
2022/07/19 11:23:44;;;;;;;3.03;2.33;;;34.40;33.00;;;;;;5108370;28;20718;-83
2022/07/19 11:26:13;;;;;;;1.77;1.67;;;34.70;32.80;;;;;;5109114;28;20619;-84
2022/07/19 11:28:41;;;;;;;1.83;1.73;;;34.90;33.20;;;;;;5109267;28;21083;-82
2022/07/19 11:31:16;;;;;;;2.37;2.17;;;35.00;32.40;;;;;;5108768;28;20700;-83
2022/07/19 11:33:44;;;;;;;1.93;1.73;;;35.30;32.70;;;;;;5097585;28;20616;-84
2022/07/19 11:36:11;;;;;;;1.70;1.60;;;35.50;32.20;;;;;;5088868;28;20775;-83
2022/07/19 11:38:40;;;;;;;1.70;1.60;;;35.40;31.90;;;;;;5088766;28;20719;-83
2022/07/19 11:41:17;;;;;;;1.53;1.43;;;35.80;31.70;;;;;;5096903;28;20718;-83
2022/07/19 11:43:44;;;;;;;2.10;1.90;;;36.30;31.80;;;;;;5108533;28;20615;-83
2022/07/19 11:46:11;;;;;;;1.70;1.60;;;36.30;31.10;;;;;;5109175;28;21073;-82
2022/07/19 11:48:38;;;;;;;1.60;1.50;;;36.30;30.50;;;;;;5108738;28;20636;-83
2022/07/19 11:51:08;;;;;;;1.73;1.63;;;36.50;30.00;;;;;;5109230;28;20693;-83
2022/07/19 11:53:37;;;;;;;1.60;1.50;;;36.60;31.00;;;;;;5108227;28;20631;-83
2022/07/19 11:56:06;;;;;;;1.93;1.83;;;37.00;30.70;;;;;;5108097;28;20663;-84
2022/07/19 11:58:34;;;;;;;1.87;1.77;;;37.40;31.30;;;;;;5107480;28;20608;-83
2022/07/19 12:01:05;;;;;;;2.00;1.90;;;37.90;30.00;;;;;;5107906;28;20680;-83
2022/07/19 12:03:33;;;;;;;1.83;1.70;;;38.50;30.80;;;;;;5107807;28;20714;-83
2022/07/19 12:06:01;;;;;;;1.70;1.60;;;39.00;29.60;;;;;;5108470;28;20651;-84
2022/07/19 12:08:41;;;;;;;2.07;1.97;;;39.70;29.30;;;;;;5108279;28;20712;-83
2022/07/19 12:11:19;;;;;;;2.00;1.90;;;40.50;28.80;;;;;;5107987;28;20671;-84
2022/07/19 12:13:48;;;;;;;1.80;1.70;;;41.20;28.40;;;;;;5107992;28;20719;-84
2022/07/19 12:16:15;;;;;;;1.95;1.83;;;42.00;27.50;;;;;;5108370;28;20279;-84
2022/07/19 12:18:47;;;;;;;1.92;1.73;;;42.30;27.10;;;;;;5108610;28;20202;-84
2022/07/19 12:21:17;;;;;;;1.85;1.75;;;42.40;27.30;;;;;;5108465;28;20212;-85
2022/07/19 12:24:04;;;;;;;2.38;2.28;;;42.60;28.80;;;;;;5107344;28;20199;-84
2022/07/19 12:26:31;;;;;;;2.20;2.10;;;42.90;27.30;;;;;;5108349;28;20289;-85
2022/07/19 12:28:59;;;;;;;1.90;1.80;;;43.00;26.90;;;;;;5108521;28;20192;-84
2022/07/19 12:31:26;;;;;;;1.77;1.67;;;43.40;26.50;;;;;;5109899;28;20713;-84
2022/07/19 12:33:59;;;;;;;2.17;2.00;;;43.80;26.70;;;;;;5111583;28;20708;-83
2022/07/19 12:36:36;;;;;;;2.22;2.13;;;44.10;26.50;;;;;;5111663;28;20579;-84
2022/07/19 12:39:04;;;;;;;2.47;2.38;;;44.20;26.10;;;;;;5112588;28;20227;-84
2022/07/19 12:41:31;;;;;;;1.85;1.75;;;44.30;26.10;;;;;;5112179;28;20199;-82
2022/07/19 12:43:59;;;;;;;2.33;2.15;;;44.20;26.20;;;;;;5112052;28;20310;-81
2022/07/19 12:46:26;;;;;;;1.35;1.25;;;44.10;26.20;;;;;;5111989;28;20275;-83
2022/07/19 12:48:53;;;;;;;2.20;2.10;;;44.90;25.70;;;;;;5111708;28;20205;-82
2022/07/19 12:51:19;;;;;;;2.47;2.35;;;45.20;26.20;;;;;;5112355;28;20705;-83
2022/07/19 12:53:46;;;;;;;2.17;2.08;;;45.10;26.10;;;;;;5111498;28;20200;-83
2022/07/19 12:56:13;;;;;;;2.20;2.10;;;45.00;26.40;;;;;;5112382;28;20621;-85
2022/07/19 13:01:26;;;;;;;2.05;1.95;;;45.30;25.90;;;;;;5111501;28;20569;-83